Time;durP1;ratioP1;P1;durP2;ratioP2;P2;SDS_P1;SDS_P2;PMS_P1;PMS_P2;Temp;Humidity;BMP_temperature;BMP_pressure;BME280_temperature;BME280_humidity;BME280_pressure;Samples;Min_cycle;Max_cycle;Signal;HPM_P1;HPM_P2
2022/09/30 00:01:11;;;;;;;1.13;1.02;;;;;;;;;;5065731;28;20491;-41
2022/09/30 00:03:37;;;;;;;0.77;0.77;;;;;;;;;;5065389;28;20035;-41
2022/09/30 00:06:05;;;;;;;1.00;0.98;;;;;;;;;;5065517;28;20028;-41
2022/09/30 00:08:31;;;;;;;1.42;0.93;;;;;;;;;;5065452;28;20024;-41
2022/09/30 00:11:02;;;;;;;1.00;0.90;;;;;;;;;;5066079;28;20499;-41
2022/09/30 00:13:28;;;;;;;0.73;0.70;;;;;;;;;;5065961;28;20091;-41
2022/09/30 00:15:55;;;;;;;1.00;0.73;;;;;;;;;;5064865;28;20024;-41
2022/09/30 00:18:21;;;;;;;1.45;0.90;;;;;;;;;;5065183;28;20052;-41
2022/09/30 00:20:47;;;;;;;1.20;0.90;;;;;;;;;;5065636;28;20514;-41
2022/09/30 00:23:13;;;;;;;1.17;1.00;;;;;;;;;;5065526;28;20029;-41
2022/09/30 00:25:39;;;;;;;0.77;0.77;;;;;;;;;;5065012;28;20055;-41
2022/09/30 00:28:06;;;;;;;2.10;1.10;;;;;;;;;;5065150;28;20044;-41
2022/09/30 00:30:33;;;;;;;1.30;1.20;;;;;;;;;;5065177;28;20024;-41
2022/09/30 00:32:59;;;;;;;1.50;1.25;;;;;;;;;;5065299;28;20035;-41
2022/09/30 00:35:26;;;;;;;1.48;1.20;;;;;;;;;;5065085;28;20382;-41
2022/09/30 00:37:52;;;;;;;1.75;1.17;;;;;;;;;;5065079;28;20029;-41
2022/09/30 00:40:21;;;;;;;2.20;1.65;;;;;;;;;;5065399;28;20020;-41
2022/09/30 00:42:48;;;;;;;2.15;1.58;;;;;;;;;;5065088;28;20090;-41
2022/09/30 00:45:16;;;;;;;1.55;1.30;;;;;;;;;;5065111;28;20024;-41
2022/09/30 00:47:54;;;;;;;1.70;1.15;;;;;;;;;;5064622;28;20028;-41
2022/09/30 00:50:20;;;;;;;1.65;1.40;;;;;;;;;;5064654;28;20024;-41
2022/09/30 00:52:50;;;;;;;1.73;1.17;;;;;;;;;;5065284;28;20462;-41
2022/09/30 00:55:24;;;;;;;1.27;1.10;;;;;;;;;;5064535;28;20032;-41
2022/09/30 00:57:50;;;;;;;;;;;;;;;;;;5065411;28;20028;-41
2022/09/30 01:00:16;;;;;;;1.65;1.27;;;;;;;;;;5064805;28;19908;-41
2022/09/30 01:02:42;;;;;;;2.55;1.45;;;;;;;;;;5064513;28;20028;-41
2022/09/30 01:05:08;;;;;;;1.83;1.38;;;;;;;;;;5064551;28;20111;-41
2022/09/30 01:07:35;;;;;;;1.33;1.10;;;;;;;;;;5064683;28;20514;-41
2022/09/30 01:10:02;;;;;;;2.13;1.40;;;;;;;;;;5064693;28;20541;-41
2022/09/30 01:12:29;;;;;;;2.55;1.40;;;;;;;;;;5064830;28;20036;-41
2022/09/30 01:14:56;;;;;;;2.63;1.60;;;;;;;;;;5064674;28;20412;-41
2022/09/30 01:17:22;;;;;;;2.50;1.40;;;;;;;;;;5064219;28;20540;-41
2022/09/30 01:19:50;;;;;;;3.17;1.60;;;;;;;;;;5064796;28;20055;-41
2022/09/30 01:22:22;;;;;;;1.70;1.40;;;;;;;;;;5082368;28;20028;-41
2022/09/30 01:25:07;;;;;;;2.70;1.45;;;;;;;;;;5084889;28;20106;-41
2022/09/30 01:27:39;;;;;;;1.80;1.40;;;;;;;;;;5085676;28;20093;-41
2022/09/30 01:30:08;;;;;;;2.50;1.70;;;;;;;;;;5089089;28;20032;-41
2022/09/30 01:32:34;;;;;;;2.17;1.40;;;;;;;;;;5088449;28;20036;-41
2022/09/30 01:35:19;;;;;;;2.20;1.83;;;;;;;;;;5089275;28;20039;-41
2022/09/30 01:37:48;;;;;;;1.17;1.08;;;;;;;;;;5087347;28;20458;-41
2022/09/30 01:40:25;;;;;;;2.30;1.80;;;;;;;;;;5088828;28;20021;-41
2022/09/30 01:42:55;;;;;;;1.73;1.58;;;;;;;;;;5088861;28;20069;-41
2022/09/30 01:45:32;;;;;;;1.40;1.30;;;;;;;;;;5088164;28;20062;-41
2022/09/30 01:47:59;;;;;;;1.60;1.50;;;;;;;;;;5089014;28;20457;-41
2022/09/30 01:50:44;;;;;;;2.65;1.80;;;;;;;;;;5088367;28;20388;-41
2022/09/30 01:53:16;;;;;;;2.13;1.60;;;;;;;;;;5088390;28;20097;-41
2022/09/30 01:55:48;;;;;;;2.28;1.80;;;;;;;;;;5088024;28;20035;-41
2022/09/30 01:58:44;;;;;;;2.05;1.40;;;;;;;;;;5088495;28;20407;-41
2022/09/30 02:01:17;;;;;;;1.90;1.60;;;;;;;;;;5079170;28;20035;-41
2022/09/30 02:03:54;;;;;;;1.85;1.75;;;;;;;;;;5088078;28;20580;-41
2022/09/30 02:06:22;;;;;;;1.80;1.60;;;;;;;;;;5087839;28;20020;-41
2022/09/30 02:08:52;;;;;;;2.15;1.70;;;;;;;;;;5088074;28;20028;-41
2022/09/30 02:11:24;;;;;;;2.17;1.40;;;;;;;;;;5087726;28;20031;-41
2022/09/30 02:13:56;;;;;;;2.42;1.73;;;;;;;;;;5088090;28;20081;-41
2022/09/30 02:16:25;;;;;;;2.72;1.70;;;;;;;;;;5087798;28;20457;-41
2022/09/30 02:18:54;;;;;;;2.38;1.52;;;;;;;;;;5088061;28;20070;-41
2022/09/30 02:21:23;;;;;;;2.20;1.80;;;;;;;;;;5087593;28;20503;-41
2022/09/30 02:23:51;;;;;;;2.65;1.80;;;;;;;;;;5088064;28;20081;-41
2022/09/30 02:26:19;;;;;;;2.60;1.85;;;;;;;;;;5087619;28;20028;-41
2022/09/30 02:28:47;;;;;;;2.28;1.67;;;;;;;;;;5087722;28;20043;-41
2022/09/30 02:31:14;;;;;;;2.08;1.88;;;;;;;;;;5087531;28;20051;-41
2022/09/30 02:33:49;;;;;;;2.22;1.90;;;;;;;;;;5087380;28;20561;-41
2022/09/30 02:36:25;;;;;;;2.17;1.60;;;;;;;;;;5087569;28;20454;-41
2022/09/30 02:39:04;;;;;;;2.92;1.80;;;;;;;;;;5087289;28;20020;-41
2022/09/30 02:41:34;;;;;;;2.47;1.88;;;;;;;;;;5087776;28;20020;-41
2022/09/30 02:44:01;;;;;;;2.97;1.50;;;;;;;;;;5087834;28;20024;-41
2022/09/30 02:46:36;;;;;;;2.08;1.75;;;;;;;;;;5087429;28;20529;-41
2022/09/30 02:49:06;;;;;;;2.10;1.80;;;;;;;;;;5087450;28;20533;-41
2022/09/30 02:51:44;;;;;;;2.40;1.58;;;;;;;;;;5087003;28;20561;-41
2022/09/30 02:54:28;;;;;;;1.95;1.70;;;;;;;;;;5087329;28;20024;-41
2022/09/30 02:57:01;;;;;;;3.33;2.00;;;;;;;;;;5087162;28;20065;-41
2022/09/30 02:59:28;;;;;;;2.23;1.77;;;;;;;;;;5087450;28;20028;-41
2022/09/30 03:01:55;;;;;;;1.88;1.65;;;;;;;;;;5086987;28;20311;-41
2022/09/30 03:04:24;;;;;;;2.03;1.80;;;;;;;;;;5086836;28;20035;-41
2022/09/30 03:06:51;;;;;;;2.95;1.98;;;;;;;;;;5086844;28;20112;-41
2022/09/30 03:09:17;;;;;;;2.28;1.60;;;;;;;;;;5086756;28;20063;-41
2022/09/30 03:11:43;;;;;;;2.17;1.60;;;;;;;;;;5086563;28;20032;-41
2022/09/30 03:14:19;;;;;;;2.45;1.65;;;;;;;;;;5087057;28;20020;-41
2022/09/30 03:17:05;;;;;;;1.98;1.77;;;;;;;;;;5086804;28;20022;-41
2022/09/30 03:19:45;;;;;;;1.92;1.67;;;;;;;;;;5087238;28;20031;-41
2022/09/30 03:22:14;;;;;;;2.03;1.40;;;;;;;;;;5086647;28;20124;-41
2022/09/30 03:24:40;;;;;;;2.28;1.35;;;;;;;;;;5086589;28;20129;-41
2022/09/30 03:27:30;;;;;;;2.60;1.35;;;;;;;;;;5086580;28;20028;-41
2022/09/30 03:30:02;;;;;;;1.45;1.30;;;;;;;;;;5086463;28;20081;-41
2022/09/30 03:32:31;;;;;;;2.65;1.33;;;;;;;;;;5086690;28;20232;-41
2022/09/30 03:35:00;;;;;;;1.55;1.38;;;;;;;;;;5087027;28;20028;-41
2022/09/30 03:37:32;;;;;;;3.33;1.48;;;;;;;;;;5086585;28;20021;-41
2022/09/30 03:40:17;;;;;;;1.20;1.10;;;;;;;;;;5086780;28;20020;-41
2022/09/30 03:42:46;;;;;;;2.90;1.55;;;;;;;;;;5085806;28;20035;-41
2022/09/30 03:45:19;;;;;;;1.73;1.38;;;;;;;;;;5086323;28;20487;-41
2022/09/30 03:47:46;;;;;;;2.08;1.60;;;;;;;;;;5086475;28;20043;-41
2022/09/30 03:50:15;;;;;;;1.92;1.40;;;;;;;;;;5085895;28;20548;-41
2022/09/30 03:52:42;;;;;;;2.30;1.60;;;;;;;;;;5085596;28;20402;-41
2022/09/30 03:55:10;;;;;;;1.70;1.42;;;;;;;;;;5085848;28;20043;-41
2022/09/30 03:57:38;;;;;;;1.70;1.40;;;;;;;;;;5086032;28;20383;-41
2022/09/30 04:00:05;;;;;;;2.05;1.52;;;;;;;;;;5086044;28;20035;-41
2022/09/30 04:02:31;;;;;;;2.17;1.40;;;;;;;;;;5085932;28;20020;-41
2022/09/30 04:04:58;;;;;;;2.20;1.52;;;;;;;;;;5086307;28;20423;-41
2022/09/30 04:07:24;;;;;;;1.65;1.55;;;;;;;;;;5086154;28;20388;-41
2022/09/30 04:09:50;;;;;;;1.98;1.67;;;;;;;;;;5085808;28;20028;-41
2022/09/30 04:12:16;;;;;;;1.92;1.73;;;;;;;;;;5086174;28;20284;-41
2022/09/30 04:14:42;;;;;;;2.25;2.00;;;;;;;;;;5085633;28;20130;-41
2022/09/30 04:17:09;;;;;;;2.70;2.08;;;;;;;;;;5085392;28;20031;-41
2022/09/30 04:19:38;;;;;;;3.00;2.30;;;;;;;;;;5085664;28;20073;-41
2022/09/30 04:22:05;;;;;;;3.70;2.47;;;;;;;;;;5085650;28;20077;-41
2022/09/30 04:24:31;;;;;;;2.85;2.17;;;;;;;;;;5086000;28;20032;-41
2022/09/30 04:26:57;;;;;;;2.33;2.00;;;;;;;;;;5085895;28;20306;-41
2022/09/30 04:29:23;;;;;;;2.38;2.13;;;;;;;;;;5085508;28;20036;-41
2022/09/30 04:31:49;;;;;;;2.40;2.10;;;;;;;;;;5085235;28;20319;-41
2022/09/30 04:34:16;;;;;;;2.00;1.80;;;;;;;;;;5085471;28;20099;-41
2022/09/30 04:36:43;;;;;;;2.00;1.80;;;;;;;;;;5084792;28;20538;-41
2022/09/30 04:39:09;;;;;;;2.35;1.90;;;;;;;;;;5085288;28;20388;-41
2022/09/30 04:41:35;;;;;;;3.17;1.95;;;;;;;;;;5084978;28;20051;-41
2022/09/30 04:44:05;;;;;;;1.85;1.55;;;;;;;;;;5085874;28;20020;-41
2022/09/30 04:46:33;;;;;;;2.30;1.80;;;;;;;;;;5085222;28;20098;-41
2022/09/30 04:48:59;;;;;;;2.35;1.90;;;;;;;;;;5085837;28;20024;-41
2022/09/30 04:51:26;;;;;;;2.38;1.80;;;;;;;;;;5084545;28;20038;-41
2022/09/30 04:53:53;;;;;;;2.30;1.60;;;;;;;;;;5085146;28;20050;-41
2022/09/30 04:56:19;;;;;;;1.60;1.40;;;;;;;;;;5084601;28;20024;-41
2022/09/30 04:58:45;;;;;;;1.92;1.60;;;;;;;;;;5085457;28;20028;-41
2022/09/30 05:01:13;;;;;;;1.77;1.60;;;;;;;;;;5084491;28;20016;-41
2022/09/30 05:03:39;;;;;;;2.03;1.73;;;;;;;;;;5084089;28;20537;-41
2022/09/30 05:06:06;;;;;;;2.03;1.45;;;;;;;;;;5084547;28;20377;-41
2022/09/30 05:08:32;;;;;;;1.95;1.67;;;;;;;;;;5085074;28;20038;-41
2022/09/30 05:11:02;;;;;;;2.00;1.50;;;;;;;;;;5085382;28;20032;-41
2022/09/30 05:13:33;;;;;;;1.88;1.60;;;;;;;;;;5083890;28;20081;-41
2022/09/30 05:16:00;;;;;;;3.15;1.95;;;;;;;;;;5085097;28;20024;-41
2022/09/30 05:18:26;;;;;;;2.47;1.40;;;;;;;;;;5084777;28;20078;-41
2022/09/30 05:20:53;;;;;;;2.33;1.65;;;;;;;;;;5084954;28;20020;-41
2022/09/30 05:23:20;;;;;;;1.98;1.50;;;;;;;;;;5084542;28;20566;-41
2022/09/30 05:25:47;;;;;;;1.63;1.40;;;;;;;;;;5084910;28;20028;-41
2022/09/30 05:28:14;;;;;;;2.53;1.95;;;;;;;;;;5084486;28;20352;-41
2022/09/30 05:30:40;;;;;;;2.40;2.08;;;;;;;;;;5084312;28;20051;-41
2022/09/30 05:33:07;;;;;;;2.33;1.83;;;;;;;;;;5084196;28;20031;-41
2022/09/30 05:35:34;;;;;;;1.98;1.77;;;;;;;;;;5084343;28;20399;-41
2022/09/30 05:38:02;;;;;;;4.20;2.30;;;;;;;;;;5085502;28;20028;-41
2022/09/30 05:40:28;;;;;;;2.00;1.40;;;;;;;;;;5084850;28;20028;-41
2022/09/30 05:42:56;;;;;;;2.55;1.75;;;;;;;;;;5084580;28;20237;-41
2022/09/30 05:45:22;;;;;;;1.88;1.75;;;;;;;;;;5084457;28;20024;-41
2022/09/30 05:47:51;;;;;;;1.52;1.40;;;;;;;;;;5084413;28;20103;-41
2022/09/30 05:50:18;;;;;;;1.60;1.50;;;;;;;;;;5084525;28;20035;-41
2022/09/30 05:52:44;;;;;;;1.38;1.27;;;;;;;;;;5084246;28;20566;-41
2022/09/30 05:55:10;;;;;;;2.08;1.50;;;;;;;;;;5084479;28;20030;-41
2022/09/30 05:57:36;;;;;;;1.50;1.30;;;;;;;;;;5084138;28;20475;-41
2022/09/30 06:00:02;;;;;;;2.00;1.50;;;;;;;;;;5084084;28;20028;-41
2022/09/30 06:02:28;;;;;;;1.70;1.58;;;;;;;;;;5084554;28;20387;-41
2022/09/30 06:04:54;;;;;;;2.00;1.63;;;;;;;;;;5084547;28;20173;-41
2022/09/30 06:07:21;;;;;;;1.60;1.50;;;;;;;;;;5084649;28;20032;-41
2022/09/30 06:09:48;;;;;;;1.92;1.58;;;;;;;;;;5084455;28;20032;-41
2022/09/30 06:12:14;;;;;;;1.80;1.42;;;;;;;;;;5080380;28;20115;-41
2022/09/30 06:14:41;;;;;;;1.30;1.20;;;;;;;;;;5073374;28;20016;-41
2022/09/30 06:17:07;;;;;;;1.55;1.27;;;;;;;;;;5069369;28;20082;-41
2022/09/30 06:19:33;;;;;;;2.08;1.20;;;;;;;;;;5089102;28;20016;-41
2022/09/30 06:22:00;;;;;;;1.30;1.20;;;;;;;;;;5089636;28;20036;-41
2022/09/30 06:24:26;;;;;;;1.83;1.60;;;;;;;;;;5088441;28;20462;-41
2022/09/30 06:26:52;;;;;;;1.65;1.50;;;;;;;;;;5089117;28;20028;-41
2022/09/30 06:29:18;;;;;;;1.35;1.25;;;;;;;;;;5087231;28;20035;-41
2022/09/30 06:31:44;;;;;;;1.58;1.33;;;;;;;;;;5068705;28;20062;-41
2022/09/30 06:34:10;;;;;;;1.38;1.27;;;;;;;;;;5068818;28;20430;-41
2022/09/30 06:36:36;;;;;;;1.67;1.58;;;;;;;;;;5068443;28;20024;-41
2022/09/30 06:39:03;;;;;;;1.92;1.73;;;;;;;;;;5068768;28;20123;-41
2022/09/30 06:41:30;;;;;;;1.83;1.52;;;;;;;;;;5078486;28;20036;-41
2022/09/30 06:43:56;;;;;;;2.70;1.45;;;;;;;;;;5089142;28;20020;-41
2022/09/30 06:46:23;;;;;;;2.25;1.70;;;;;;;;;;5075358;28;20025;-41
2022/09/30 06:48:51;;;;;;;1.90;1.67;;;;;;;;;;5068555;28;20475;-41
2022/09/30 06:51:19;;;;;;;2.58;1.85;;;;;;;;;;5068721;28;20023;-41
2022/09/30 06:53:45;;;;;;;2.10;1.90;;;;;;;;;;5068569;28;20021;-41
2022/09/30 06:56:11;;;;;;;2.08;1.80;;;;;;;;;;5078872;28;20478;-41
2022/09/30 06:58:39;;;;;;;2.03;1.83;;;;;;;;;;5084765;28;20079;-41
2022/09/30 07:01:05;;;;;;;1.73;1.35;;;;;;;;;;5086767;28;20103;-41
2022/09/30 07:03:34;;;;;;;2.00;1.80;;;;;;;;;;5086961;28;20504;-41
2022/09/30 07:06:02;;;;;;;1.40;1.30;;;;;;;;;;5080316;28;20486;-41
2022/09/30 07:08:30;;;;;;;1.50;1.40;;;;;;;;;;5079642;28;20032;-41
2022/09/30 07:10:57;;;;;;;1.73;1.60;;;;;;;;;;5086518;28;20514;-41
2022/09/30 07:13:23;;;;;;;1.63;1.52;;;;;;;;;;5086511;28;20020;-41
2022/09/30 07:15:53;;;;;;;1.58;1.48;;;;;;;;;;5080895;28;20020;-41
2022/09/30 07:18:23;;;;;;;2.05;1.83;;;;;;;;;;5070413;28;20035;-41
2022/09/30 07:20:51;;;;;;;1.60;1.50;;;;;;;;;;5088337;28;20099;-41
2022/09/30 07:23:17;;;;;;;1.98;1.67;;;;;;;;;;5086730;28;20028;-41
2022/09/30 07:25:50;;;;;;;1.67;1.40;;;;;;;;;;5085342;28;20519;-41
2022/09/30 07:28:16;;;;;;;3.97;2.03;;;;;;;;;;5086517;28;20530;-41
2022/09/30 07:30:43;;;;;;;2.70;2.15;;;;;;;;;;5086381;28;20028;-41
2022/09/30 07:33:15;;;;;;;1.88;1.50;;;;;;;;;;5086310;28;20036;-41
2022/09/30 07:35:42;;;;;;;1.98;1.60;;;;;;;;;;5086292;28;20035;-41
2022/09/30 07:38:08;;;;;;;2.38;2.10;;;;;;;;;;5086834;28;20027;-41
2022/09/30 07:40:34;;;;;;;2.55;1.65;;;;;;;;;;5086097;28;20106;-41
2022/09/30 07:43:02;;;;;;;2.10;1.70;;;;;;;;;;5086650;28;20549;-41
2022/09/30 07:45:28;;;;;;;1.73;1.48;;;;;;;;;;5087013;28;20024;-41
2022/09/30 07:47:54;;;;;;;1.77;1.60;;;;;;;;;;5086559;28;20514;-41
2022/09/30 07:50:21;;;;;;;2.50;2.03;;;;;;;;;;5086037;28;20367;-41
2022/09/30 07:52:47;;;;;;;2.22;1.77;;;;;;;;;;5086059;28;20109;-41
2022/09/30 07:55:14;;;;;;;2.17;1.88;;;;;;;;;;5086079;28;20059;-41
2022/09/30 07:57:40;;;;;;;2.67;2.13;;;;;;;;;;5085886;28;20020;-41
2022/09/30 08:00:06;;;;;;;2.65;2.10;;;;;;;;;;5085779;28;20028;-41
2022/09/30 08:02:32;;;;;;;2.53;1.95;;;;;;;;;;5085777;28;20020;-41
2022/09/30 08:04:58;;;;;;;3.13;2.00;;;;;;;;;;5084014;28;20069;-41
2022/09/30 08:07:24;;;;;;;2.65;2.05;;;;;;;;;;5071948;28;20387;-41
2022/09/30 08:09:50;;;;;;;2.50;2.10;;;;;;;;;;5079419;28;20056;-41
2022/09/30 08:12:16;;;;;;;2.17;1.92;;;;;;;;;;5088002;28;20024;-41
2022/09/30 08:14:43;;;;;;;3.08;2.13;;;;;;;;;;5083301;28;20028;-41
2022/09/30 08:17:09;;;;;;;2.38;1.83;;;;;;;;;;5086651;28;20081;-41
2022/09/30 08:19:36;;;;;;;2.05;1.80;;;;;;;;;;5083872;28;20059;-41
2022/09/30 08:22:02;;;;;;;3.83;1.70;;;;;;;;;;5084680;28;20119;-41
2022/09/30 08:24:28;;;;;;;2.33;1.85;;;;;;;;;;5085266;28;20669;-41
2022/09/30 08:26:55;;;;;;;1.70;1.50;;;;;;;;;;5086145;28;20141;-42
2022/09/30 08:29:21;;;;;;;2.35;1.58;;;;;;;;;;5084826;28;20858;-41
2022/09/30 08:31:48;;;;;;;1.83;1.60;;;;;;;;;;5086039;28;20020;-41
2022/09/30 08:34:14;;;;;;;1.98;1.77;;;;;;;;;;5084877;28;20049;-41
2022/09/30 08:36:40;;;;;;;2.10;1.90;;;;;;;;;;5080247;28;20032;-41
2022/09/30 08:39:09;;;;;;;1.70;1.50;;;;;;;;;;5077007;28;20097;-41
2022/09/30 08:41:35;;;;;;;1.42;1.27;;;;;;;;;;5085117;28;20036;-41
2022/09/30 08:44:04;;;;;;;1.58;1.45;;;;;;;;;;5084951;28;20445;-41
2022/09/30 08:46:43;;;;;;;1.33;1.23;;;;;;;;;;5084265;28;20420;-41
2022/09/30 08:49:10;;;;;;;2.00;1.08;;;;;;;;;;5083994;28;20032;-41
2022/09/30 08:51:38;;;;;;;1.30;1.20;;;;;;;;;;5084113;28;20042;-41
2022/09/30 08:54:07;;;;;;;1.15;1.05;;;;;;;;;;5085022;28;20447;-41
2022/09/30 08:56:34;;;;;;;1.90;1.20;;;;;;;;;;5085207;28;20024;-41
2022/09/30 08:59:11;;;;;;;1.48;1.38;;;;;;;;;;5084836;28;20043;-41
2022/09/30 09:01:45;;;;;;;1.30;1.20;;;;;;;;;;5085266;28;20077;-41
2022/09/30 09:04:12;;;;;;;1.88;1.50;;;;;;;;;;5082954;28;20735;-41
2022/09/30 09:06:57;;;;;;;1.30;1.20;;;;;;;;;;5085242;28;20412;-41
2022/09/30 09:09:23;;;;;;;1.30;1.20;;;;;;;;;;5083335;28;20088;-41
2022/09/30 09:11:49;;;;;;;1.45;1.35;;;;;;;;;;5085187;28;20221;-41
2022/09/30 09:14:17;;;;;;;1.73;1.60;;;;;;;;;;5084493;28;20020;-41
2022/09/30 09:16:59;;;;;;;1.23;1.10;;;;;;;;;;5085090;28;20021;-41
2022/09/30 09:19:29;;;;;;;1.65;1.45;;;;;;;;;;5079417;28;20455;-41
2022/09/30 09:21:59;;;;;;;1.58;1.13;;;;;;;;;;5064839;28;20437;-41
2022/09/30 09:24:45;;;;;;;1.10;1.00;;;;;;;;;;5078825;28;20056;-41
2022/09/30 09:27:26;;;;;;;1.98;1.20;;;;;;;;;;5085612;28;20032;-41
2022/09/30 09:29:52;;;;;;;1.17;1.05;;;;;;;;;;5083917;28;20125;-41
2022/09/30 09:32:19;;;;;;;1.63;0.90;;;;;;;;;;5085873;28;20062;-41
2022/09/30 09:34:50;;;;;;;1.10;1.00;;;;;;;;;;5083788;28;20404;-41
2022/09/30 09:38:23;;;;;;;1.15;1.05;;;;;;;;;;5085810;28;20043;-41
2022/09/30 09:40:34;;;;;;;1.90;1.08;;;;;;;;;;5083964;28;20028;-41
2022/09/30 09:43:01;;;;;;;1.50;1.27;;;;;;;;;;5085577;28;20059;-41
2022/09/30 09:45:41;;;;;;;1.23;1.00;;;;;;;;;;5084140;28;20024;-41
2022/09/30 09:48:09;;;;;;;1.33;1.20;;;;;;;;;;5085971;28;20036;-41
2022/09/30 09:50:40;;;;;;;1.33;1.10;;;;;;;;;;5084969;28;20066;-41
2022/09/30 09:53:07;;;;;;;1.00;1.00;;;;;;;;;;5072814;28;20032;-41
2022/09/30 09:55:35;;;;;;;1.38;1.23;;;;;;;;;;5087097;28;20388;-41
2022/09/30 09:58:12;;;;;;;1.15;1.05;;;;;;;;;;5086801;28;20502;-41
2022/09/30 10:03:27;;;;;;;1.38;1.27;;;;;;;;;;5089274;28;20487;-41
2022/09/30 10:06:02;;;;;;;0.90;0.90;;;;;;;;;;5086762;28;20043;-41
2022/09/30 10:08:31;;;;;;;1.45;1.17;;;;;;;;;;5085778;28;20040;-41
2022/09/30 10:11:02;;;;;;;1.10;1.00;;;;;;;;;;5088910;28;20031;-41
2022/09/30 10:13:40;;;;;;;1.73;1.27;;;;;;;;;;5083705;28;20059;-41
2022/09/30 10:16:06;;;;;;;1.23;1.08;;;;;;;;;;5086726;28;20028;-41
2022/09/30 10:18:33;;;;;;;1.27;1.17;;;;;;;;;;5086928;28;20399;-41
2022/09/30 10:21:02;;;;;;;1.00;0.90;;;;;;;;;;5086068;28;20054;-41
2022/09/30 10:23:33;;;;;;;1.23;1.13;;;;;;;;;;5085330;28;20108;-41
2022/09/30 10:26:05;;;;;;;2.10;1.17;;;;;;;;;;5087722;28;20028;-41
2022/09/30 10:28:33;;;;;;;1.20;1.00;;;;;;;;;;5087416;28;20096;-41
2022/09/30 10:31:04;;;;;;;1.15;1.05;;;;;;;;;;5088271;28;20099;-41
2022/09/30 10:33:33;;;;;;;0.90;0.90;;;;;;;;;;5087350;28;20118;-41
2022/09/30 10:36:04;;;;;;;1.55;1.20;;;;;;;;;;5088345;28;20111;-41
2022/09/30 10:38:33;;;;;;;2.33;1.25;;;;;;;;;;5088363;28;20031;-41
2022/09/30 10:41:01;;;;;;;1.40;1.10;;;;;;;;;;5087791;28;20020;-41
2022/09/30 10:43:47;;;;;;;1.17;1.00;;;;;;;;;;5085611;28;20527;-41
2022/09/30 10:46:22;;;;;;;1.23;1.13;;;;;;;;;;5087240;28;20024;-41
2022/09/30 10:48:50;;;;;;;2.15;1.00;;;;;;;;;;5082241;28;20024;-41
2022/09/30 10:51:42;;;;;;;1.50;1.20;;;;;;;;;;5087542;28;20457;-41
2022/09/30 10:54:29;;;;;;;1.13;1.00;;;;;;;;;;5080114;28;20032;-41
2022/09/30 10:56:55;;;;;;;0.90;0.88;;;;;;;;;;5085696;28;20058;-41
2022/09/30 10:59:33;;;;;;;1.00;0.90;;;;;;;;;;5085011;28;20020;-42
2022/09/30 11:02:02;;;;;;;0.80;0.80;;;;;;;;;;5083703;28;20503;-41
2022/09/30 11:04:34;;;;;;;1.00;0.82;;;;;;;;;;5087146;28;20020;-41
2022/09/30 11:07:12;;;;;;;2.00;0.82;;;;;;;;;;5086752;28;20028;-42
2022/09/30 11:09:44;;;;;;;0.65;0.65;;;;;;;;;;5079219;28;20105;-41
2022/09/30 11:12:16;;;;;;;0.90;0.70;;;;;;;;;;5084463;28;20126;-43
2022/09/30 11:14:46;;;;;;;0.50;0.50;;;;;;;;;;5084422;28;20107;-41
2022/09/30 11:17:30;;;;;;;1.33;0.75;;;;;;;;;;5086322;28;20028;-41
2022/09/30 11:19:56;;;;;;;0.60;0.60;;;;;;;;;;5086205;28;20086;-41
2022/09/30 11:22:29;;;;;;;0.73;0.65;;;;;;;;;;5086201;28;20035;-41
2022/09/30 11:24:56;;;;;;;1.33;0.68;;;;;;;;;;5087006;28;20133;-40
2022/09/30 11:27:28;;;;;;;1.05;0.60;;;;;;;;;;5078057;28;20029;-40
2022/09/30 11:30:03;;;;;;;0.73;0.70;;;;;;;;;;5066551;28;20525;-40
2022/09/30 11:32:41;;;;;;;0.70;0.70;;;;;;;;;;5066196;28;20029;-40
2022/09/30 11:35:16;;;;;;;0.70;0.70;;;;;;;;;;5065423;28;20039;-40
2022/09/30 11:37:43;;;;;;;0.80;0.80;;;;;;;;;;5065244;28;20074;-40
2022/09/30 11:40:26;;;;;;;0.77;0.77;;;;;;;;;;5065493;28;20037;-40
2022/09/30 11:43:08;;;;;;;0.80;0.52;;;;;;;;;;5065664;28;20120;-40
2022/09/30 11:45:45;;;;;;;0.70;0.70;;;;;;;;;;5064790;28;20047;-40
2022/09/30 11:48:23;;;;;;;0.60;0.60;;;;;;;;;;5064842;28;20028;-40
2022/09/30 11:50:52;;;;;;;0.75;0.70;;;;;;;;;;5063963;28;20036;-40
2022/09/30 11:53:24;;;;;;;0.80;0.75;;;;;;;;;;5066605;28;20441;-41
2022/09/30 11:56:10;;;;;;;0.70;0.70;;;;;;;;;;5071564;28;20483;-41
2022/09/30 11:58:39;;;;;;;0.70;0.70;;;;;;;;;;5082509;28;20409;-42
2022/09/30 12:01:12;;;;;;;0.80;0.80;;;;;;;;;;5078120;28;20032;-41
2022/09/30 12:03:41;;;;;;;0.77;0.55;;;;;;;;;;5072375;28;20511;-42
2022/09/30 12:06:17;;;;;;;0.70;0.70;;;;;;;;;;5072146;28;20094;-42
2022/09/30 12:08:56;;;;;;;1.00;0.80;;;;;;;;;;5069804;28;20051;-42
2022/09/30 12:11:31;;;;;;;1.50;0.70;;;;;;;;;;5070611;28;20032;-42
2022/09/30 12:13:58;;;;;;;0.55;0.55;;;;;;;;;;5073817;28;20505;-43
2022/09/30 12:16:26;;;;;;;0.77;0.60;;;;;;;;;;5072184;28;20025;-43
2022/09/30 12:18:52;;;;;;;0.60;0.60;;;;;;;;;;5070542;28;20530;-43
2022/09/30 12:21:38;;;;;;;0.80;0.80;;;;;;;;;;5074974;28;20020;-42
2022/09/30 12:24:10;;;;;;;0.60;0.60;;;;;;;;;;5074782;28;20074;-42
2022/09/30 12:26:36;;;;;;;0.63;0.60;;;;;;;;;;5070313;28;20058;-43
2022/09/30 12:31:50;;;;;;;;;;;;;;;;;;5071835;28;20048;-43
2022/09/30 12:34:17;;;;;;;0.68;0.68;;;;;;;;;;5074193;28;19912;-42
2022/09/30 12:36:50;;;;;;;0.60;0.60;;;;;;;;;;5065723;28;20075;-44
2022/09/30 12:39:35;;;;;;;0.60;0.60;;;;;;;;;;5067043;28;20024;-43
2022/09/30 12:42:07;;;;;;;0.60;0.60;;;;;;;;;;5074551;28;20034;-42
2022/09/30 12:44:39;;;;;;;0.52;0.52;;;;;;;;;;5068390;28;20159;-41
2022/09/30 12:47:05;;;;;;;0.57;0.57;;;;;;;;;;5076774;28;20074;-41
2022/09/30 12:49:33;;;;;;;0.50;0.50;;;;;;;;;;5068108;28;20028;-42
2022/09/30 12:52:04;;;;;;;0.90;0.77;;;;;;;;;;5073855;28;20169;-41
2022/09/30 12:54:32;;;;;;;0.60;0.60;;;;;;;;;;5067635;28;20495;-42
2022/09/30 12:57:05;;;;;;;0.60;0.60;;;;;;;;;;5072302;28;20487;-40
2022/09/30 12:59:32;;;;;;;0.85;0.70;;;;;;;;;;5066753;28;20013;-40
2022/09/30 13:01:59;;;;;;;0.63;0.60;;;;;;;;;;5085081;28;20067;-40
2022/09/30 13:04:32;;;;;;;0.50;0.50;;;;;;;;;;5086154;28;20079;-40
2022/09/30 13:06:57;;;;;;;0.68;0.60;;;;;;;;;;5085743;28;20035;-40
2022/09/30 13:09:29;;;;;;;0.50;0.50;;;;;;;;;;5084565;28;20224;-40
2022/09/30 13:11:55;;;;;;;0.50;0.50;;;;;;;;;;5084848;28;20398;-40
2022/09/30 13:14:26;;;;;;;0.60;0.60;;;;;;;;;;5082989;28;20130;-40
2022/09/30 13:17:01;;;;;;;0.60;0.60;;;;;;;;;;5066854;28;20411;-40
2022/09/30 13:19:35;;;;;;;0.75;0.70;;;;;;;;;;5081335;28;20733;-40
2022/09/30 13:22:28;;;;;;;0.97;0.63;;;;;;;;;;5066985;28;20477;-40
2022/09/30 13:24:59;;;;;;;0.60;0.60;;;;;;;;;;5088851;28;20111;-40
2022/09/30 13:27:34;;;;;;;0.70;0.50;;;;;;;;;;5082282;28;20029;-40
2022/09/30 13:30:01;;;;;;;0.60;0.60;;;;;;;;;;5087007;28;20032;-40
2022/09/30 13:32:31;;;;;;;0.45;0.45;;;;;;;;;;5089987;28;20024;-40
2022/09/30 13:34:57;;;;;;;0.60;0.38;;;;;;;;;;5091196;28;20036;-40
2022/09/30 13:37:41;;;;;;;0.45;0.45;;;;;;;;;;5090605;28;20016;-40
2022/09/30 13:40:15;;;;;;;0.85;0.47;;;;;;;;;;5090023;28;20460;-40
2022/09/30 13:42:46;;;;;;;0.50;0.50;;;;;;;;;;5089750;28;20107;-40
2022/09/30 13:45:18;;;;;;;0.43;0.43;;;;;;;;;;5090398;28;20035;-40
2022/09/30 13:47:47;;;;;;;0.40;0.40;;;;;;;;;;5089402;28;20028;-40
2022/09/30 13:50:45;;;;;;;0.43;0.43;;;;;;;;;;5090235;28;20039;-40
2022/09/30 13:53:34;;;;;;;0.40;0.40;;;;;;;;;;5089540;28;20127;-40
2022/09/30 13:56:04;;;;;;;0.40;0.40;;;;;;;;;;5086971;28;20040;-40
2022/09/30 13:58:33;;;;;;;0.85;0.35;;;;;;;;;;5089687;28;20073;-41
2022/09/30 14:01:10;;;;;;;0.52;0.30;;;;;;;;;;5072444;28;20033;-40
2022/09/30 14:03:43;;;;;;;0.80;0.50;;;;;;;;;;5068914;28;20535;-40
2022/09/30 14:06:13;;;;;;;0.60;0.40;;;;;;;;;;5068943;28;20028;-40
2022/09/30 14:08:42;;;;;;;0.73;0.50;;;;;;;;;;5070163;28;20510;-40
2022/09/30 14:11:17;;;;;;;0.65;0.60;;;;;;;;;;5079450;28;20546;-40
2022/09/30 14:14:02;;;;;;;0.50;0.50;;;;;;;;;;5087441;28;20024;-40
2022/09/30 14:16:46;;;;;;;0.47;0.40;;;;;;;;;;5089062;28;20036;-40
2022/09/30 14:19:21;;;;;;;0.50;0.50;;;;;;;;;;5084604;28;20430;-40
2022/09/30 14:21:52;;;;;;;0.50;0.50;;;;;;;;;;5069139;28;20110;-42
2022/09/30 14:24:21;;;;;;;0.35;0.35;;;;;;;;;;5069088;28;20041;-40
2022/09/30 14:26:51;;;;;;;0.40;0.40;;;;;;;;;;5068037;28;20095;-40
2022/09/30 14:29:23;;;;;;;0.40;0.40;;;;;;;;;;5067325;28;20459;-45
2022/09/30 14:31:49;;;;;;;0.30;0.30;;;;;;;;;;5067657;28;20101;-43
2022/09/30 14:34:19;;;;;;;0.93;0.40;;;;;;;;;;5067254;28;20507;-43
2022/09/30 14:36:46;;;;;;;0.50;0.50;;;;;;;;;;5067471;28;20750;-43
2022/09/30 14:39:19;;;;;;;0.47;0.40;;;;;;;;;;5067250;28;20467;-42
2022/09/30 14:41:50;;;;;;;0.45;0.40;;;;;;;;;;5067417;28;20411;-43
2022/09/30 14:44:17;;;;;;;0.63;0.40;;;;;;;;;;5067391;28;20115;-42
2022/09/30 14:46:46;;;;;;;0.40;0.40;;;;;;;;;;5066834;28;20021;-42
2022/09/30 14:49:21;;;;;;;0.50;0.50;;;;;;;;;;5067156;28;20058;-42
2022/09/30 14:51:48;;;;;;;1.13;0.57;;;;;;;;;;5067068;28;20013;-41
2022/09/30 14:54:18;;;;;;;0.40;0.40;;;;;;;;;;5066919;28;20024;-41
2022/09/30 14:56:44;;;;;;;0.50;0.50;;;;;;;;;;5067332;28;20055;-41
2022/09/30 14:59:21;;;;;;;0.30;0.30;;;;;;;;;;5066981;28;20028;-41
2022/09/30 15:01:50;;;;;;;0.40;0.40;;;;;;;;;;5066814;28;20025;-41
2022/09/30 15:04:17;;;;;;;0.30;0.30;;;;;;;;;;5067050;28;20024;-42
2022/09/30 15:06:46;;;;;;;1.20;0.45;;;;;;;;;;5066553;28;20032;-41